Time;durP1;ratioP1;P1;durP2;ratioP2;P2;SDS_P1;SDS_P2;PMS_P1;PMS_P2;Temp;Humidity;BMP_temperature;BMP_pressure;BME280_temperature;BME280_humidity;BME280_pressure;Samples;Min_cycle;Max_cycle;Signal;HPM_P1;HPM_P2
2022/03/22 00:01:35;;;;;;;72.43;29.63;;;;;;;-0.07;100.00;60803.59;5092186;28;20437;-70
2022/03/22 00:04:04;;;;;;;73.53;28.77;;;;;;;-0.26;100.00;60783.47;5092414;28;20472;-71
2022/03/22 00:06:33;;;;;;;63.37;28.73;;;;;;;-0.29;100.00;60775.28;5092332;28;20437;-71
2022/03/22 00:09:00;;;;;;;63.40;27.70;;;;;;;-0.35;100.00;60771.97;5092386;28;20520;-72
2022/03/22 00:11:27;;;;;;;61.83;25.50;;;;;;;-0.35;100.00;60773.94;5092153;28;20480;-70
2022/03/22 00:13:54;;;;;;;50.47;22.13;;;;;;;-0.19;100.00;60790.88;5092376;28;20434;-70
2022/03/22 00:16:21;;;;;;;53.80;23.73;;;;;;;-0.18;100.00;60791.94;5092775;28;20499;-70
2022/03/22 00:18:48;;;;;;;63.47;25.30;;;;;;;-1.37;100.00;60667.03;5092066;28;20541;-71
2022/03/22 00:21:18;;;;;;;55.27;24.57;;;;;;;0.09;100.00;60820.00;5091807;28;20442;-71
2022/03/22 00:23:45;;;;;;;63.13;26.10;;;;;;;0.06;100.00;60812.38;5091845;28;21016;-70
2022/03/22 00:26:11;;;;;;;51.47;22.30;;;;;;;0.26;100.00;60838.56;5091610;28;20449;-72
2022/03/22 00:28:38;;;;;;;62.40;28.80;;;;;;;0.30;100.00;60844.78;5092849;28;20445;-70
2022/03/22 00:31:07;;;;;;;60.93;29.13;;;;;;;0.18;100.00;60829.56;5091736;28;21080;-72
2022/03/22 00:33:34;;;;;;;63.00;26.87;;;;;;;0.18;100.00;60827.59;5092144;28;20437;-71
2022/03/22 00:36:02;;;;;;;69.83;27.60;;;;;;;0.22;100.00;60836.28;5092144;28;20468;-71
2022/03/22 00:38:31;;;;;;;64.50;27.77;;;;;;;0.26;100.00;60838.56;5091847;28;20928;-73
2022/03/22 00:40:59;;;;;;;52.50;23.70;;;;;;;0.27;100.00;60841.59;5091757;28;21036;-70
2022/03/22 00:43:26;;;;;;;67.40;26.83;;;;;;;0.42;100.00;60855.00;5091869;28;20446;-72
2022/03/22 00:45:54;;;;;;;60.33;26.67;;;;;;;0.40;100.00;60853.41;5091761;28;21005;-71
2022/03/22 00:48:21;;;;;;;58.70;26.67;;;;;;;0.39;100.00;60849.84;5091521;28;20454;-71
2022/03/22 00:50:51;;;;;;;58.90;25.33;;;;;;;0.47;100.00;60855.81;5091828;28;20485;-71
2022/03/22 00:53:18;;;;;;;63.20;28.23;;;;;;;0.31;100.00;60843.31;5091617;28;20441;-72
2022/03/22 00:55:47;;;;;;;78.07;33.60;;;;;;;0.18;100.00;60832.59;5091856;28;20463;-72
2022/03/22 00:58:14;;;;;;;68.80;31.20;;;;;;;-0.62;100.00;60745.34;5091664;28;20433;-72
2022/03/22 01:00:41;;;;;;;76.47;32.67;;;;;;;0.28;100.00;60845.69;5092037;28;20438;-71
2022/03/22 01:03:10;;;;;;;66.33;31.80;;;;;;;0.18;100.00;60830.09;5091397;28;20470;-71
2022/03/22 01:05:38;;;;;;;73.20;31.57;;;;;;;0.29;100.00;60841.75;5092204;28;20580;-71
2022/03/22 01:08:08;;;;;;;74.67;33.97;;;;;;;-0.03;100.00;60807.81;5092210;28;20440;-71
2022/03/22 01:10:38;;;;;;;70.23;31.80;;;;;;;0.35;100.00;60848.09;5091438;28;21003;-72
2022/03/22 01:13:07;;;;;;;80.83;32.97;;;;;;;0.31;100.00;60838.84;5091674;28;20528;-70
2022/03/22 01:15:37;;;;;;;72.50;32.27;;;;;;;0.33;100.00;60845.97;5091672;28;20441;-71
2022/03/22 01:18:06;;;;;;;76.83;34.27;;;;;;;0.41;100.00;60854.47;5092194;28;20446;-70
2022/03/22 01:20:34;;;;;;;84.60;33.97;;;;;;;0.47;100.00;60860.81;5090357;28;20441;-70
2022/03/22 01:23:03;;;;;;;81.67;33.30;;;;;;;0.47;100.00;60860.81;5092237;28;20449;-71
2022/03/22 01:25:34;;;;;;;93.23;35.47;;;;;;;0.35;100.00;60848.09;5091913;28;20438;-71
2022/03/22 01:28:03;;;;;;;74.00;34.83;;;;;;;-0.41;100.00;60772.59;5091430;28;20920;-71
2022/03/22 01:30:32;;;;;;;83.17;35.80;;;;;;;0.23;100.00;60829.84;5091311;28;20564;-71
2022/03/22 01:33:00;;;;;;;93.73;38.27;;;;;;;0.05;100.00;60821.31;5091240;28;20442;-71
2022/03/22 01:35:27;;;;;;;85.67;37.40;;;;;;;0.13;100.00;60819.78;5093783;28;20446;-73
2022/03/22 01:37:56;;;;;;;87.53;37.47;;;;;;;-0.07;100.00;60803.59;5094932;28;20490;-70
2022/03/22 01:40:25;;;;;;;100.73;40.33;;;;;;;0.11;100.00;60822.66;5095007;28;20445;-72
2022/03/22 01:42:53;;;;;;;95.33;38.67;;;;;;;-0.05;100.00;60803.75;5094906;28;20438;-72
2022/03/22 01:45:20;;;;;;;91.93;39.43;;;;;;;-0.05;100.00;60805.72;5094701;28;20503;-71
2022/03/22 01:47:49;;;;;;;106.50;40.27;;;;;;;-0.10;100.00;60800.44;5095089;28;20528;-71
2022/03/22 01:50:19;;;;;;;103.10;41.97;;;;;;;-0.10;100.00;60798.44;5095041;28;20467;-72
2022/03/22 01:52:46;;;;;;;93.77;38.10;;;;;;;-0.29;100.00;60780.28;5094911;28;20498;-72
2022/03/22 01:55:17;;;;;;;94.17;38.17;;;;;;;-0.12;100.00;60798.81;5094919;28;20437;-72
2022/03/22 01:57:44;;;;;;;86.47;37.17;;;;;;;0.02;100.00;60813.13;5094842;28;20438;-71
2022/03/22 02:00:13;;;;;;;85.03;37.13;;;;;;;0.07;100.00;60818.44;5095125;28;20433;-72
2022/03/22 02:08:16;;;;;;;94.33;37.87;;;;;;;0.05;100.00;60811.31;5094562;28;20429;-70
2022/03/22 02:10:43;;;;;;;89.40;40.07;;;;;;;-0.03;100.00;60805.88;5094794;28;20510;-70
2022/03/22 02:13:10;;;;;;;93.47;37.70;;;;;;;-0.12;100.00;60798.31;5094209;28;21020;-71
2022/03/22 02:15:37;;;;;;;84.43;33.80;;;;;;;-0.27;100.00;60777.94;5093874;28;20527;-71
2022/03/22 02:18:05;;;;;;;93.53;36.90;;;;;;;-0.27;100.00;60784.91;5093996;28;20450;-73
2022/03/22 02:20:33;;;;;;;81.77;35.70;;;;;;;-0.40;100.00;60768.66;5094187;28;20958;-71
2022/03/22 02:23:06;;;;;;;83.33;34.03;;;;;;;-0.53;100.00;60750.41;5094264;28;20434;-70
2022/03/22 02:25:35;;;;;;;84.97;34.53;;;;;;;-0.33;100.00;60776.06;5094911;28;20495;-72
2022/03/22 02:28:03;;;;;;;66.00;29.63;;;;;;;-0.43;100.00;60766.00;5094166;28;20591;-72
2022/03/22 02:30:31;;;;;;;66.83;30.20;;;;;;;-0.47;100.00;60761.22;5094252;28;20477;-72
2022/03/22 02:33:01;;;;;;;68.40;30.37;;;;;;;-0.43;100.00;60762.97;5094260;28;20446;-71
2022/03/22 02:35:29;;;;;;;64.40;29.33;;;;;;;-0.41;100.00;60768.13;5093735;28;20485;-71
2022/03/22 02:37:58;;;;;;;74.57;32.27;;;;;;;-0.36;100.00;60770.38;5094415;28;20442;-72
2022/03/22 02:40:26;;;;;;;74.57;32.07;;;;;;;-0.58;100.00;60750.09;5093990;28;20520;-71
2022/03/22 02:42:55;;;;;;;66.87;29.37;;;;;;;-0.68;100.00;60739.53;5093849;28;21041;-71
2022/03/22 02:45:23;;;;;;;66.93;30.17;;;;;;;-0.63;100.00;60744.28;5093771;28;20491;-72
2022/03/22 02:47:51;;;;;;;58.47;28.63;;;;;;;-0.55;100.00;60752.75;5093787;28;20450;-71
2022/03/22 02:50:20;;;;;;;65.73;31.33;;;;;;;-0.47;100.00;60761.75;5093446;28;20997;-72
2022/03/22 02:52:47;;;;;;;67.73;30.37;;;;;;;-0.32;100.00;60779.63;5093576;28;20438;-71
2022/03/22 02:55:15;;;;;;;74.87;31.60;;;;;;;-0.36;100.00;60775.38;5094238;28;20590;-71
2022/03/22 02:57:43;;;;;;;68.17;31.03;;;;;;;-0.47;100.00;60761.75;5093547;28;20516;-71
2022/03/22 03:00:14;;;;;;;66.23;29.60;;;;;;;-0.59;100.00;60748.53;5093440;28;20441;-72
2022/03/22 03:02:43;;;;;;;64.57;29.00;;;;;;;-0.44;100.00;60761.91;5093640;28;20490;-71
2022/03/22 03:05:10;;;;;;;69.57;30.90;;;;;;;-0.64;100.00;60740.75;5093223;28;20540;-72
2022/03/22 03:07:37;;;;;;;60.93;27.83;;;;;;;-0.53;100.00;60752.38;5093585;28;20468;-70
2022/03/22 03:10:06;;;;;;;63.53;29.27;;;;;;;-0.60;100.00;60748.00;5093310;28;21021;-71
2022/03/22 03:12:33;;;;;;;62.10;28.30;;;;;;;-2.28;100.00;60568.84;5093129;28;20570;-72
2022/03/22 03:15:00;;;;;;;66.00;29.67;;;;;;;-0.94;100.00;60712.53;5093752;28;20438;-71
2022/03/22 03:17:29;;;;;;;70.47;28.63;;;;;;;-0.82;100.00;60724.19;5093628;28;20438;-71
2022/03/22 03:19:56;;;;;;;64.53;28.50;;;;;;;-1.07;100.00;60693.25;5093212;28;20441;-70
2022/03/22 03:22:23;;;;;;;69.07;28.20;;;;;;;-1.11;100.00;60694.56;5093173;28;20450;-72
2022/03/22 03:24:49;;;;;;;68.90;28.93;;;;;;;-1.11;100.00;60689.03;5092984;28;20438;-72
2022/03/22 03:27:16;;;;;;;65.53;29.57;;;;;;;-1.15;100.00;60689.78;5093187;28;20539;-70
2022/03/22 03:29:43;;;;;;;63.90;28.50;;;;;;;-1.19;100.00;60686.09;5092951;28;20859;-71
2022/03/22 03:32:10;;;;;;;62.43;28.23;;;;;;;-1.20;100.00;60685.03;5092840;28;20477;-71
2022/03/22 03:34:39;;;;;;;68.37;29.50;;;;;;;-1.38;100.00;60665.44;5093304;28;20495;-72
2022/03/22 03:37:07;;;;;;;71.87;29.97;;;;;;;-1.33;100.00;60671.28;5093268;28;20469;-71
2022/03/22 03:39:37;;;;;;;67.33;28.63;;;;;;;-1.40;100.00;60663.88;5092828;28;20438;-71
2022/03/22 03:42:05;;;;;;;68.13;30.50;;;;;;;-1.25;100.00;60679.75;5093434;28;20442;-73
2022/03/22 03:47:22;;;;;;;59.17;26.87;;;;;;;-1.29;100.00;60675.50;5093009;28;20421;-71
2022/03/22 03:49:54;;;;;;;65.03;28.17;;;;;;;-1.24;100.00;60680.78;5092677;28;20975;-71
2022/03/22 03:52:22;;;;;;;70.67;30.70;;;;;;;-1.14;100.00;60691.38;5092502;28;21027;-71
2022/03/22 03:54:50;;;;;;;65.17;28.03;;;;;;;-1.85;100.00;60618.78;5092721;28;20438;-71
2022/03/22 03:57:18;;;;;;;75.47;31.67;;;;;;;-1.14;100.00;60690.84;5092564;28;20853;-72
2022/03/22 03:59:45;;;;;;;59.43;28.23;;;;;;;-1.10;100.00;60695.59;5092151;28;20446;-72
2022/03/22 04:02:15;;;;;;;65.17;28.20;;;;;;;-1.11;100.00;60694.03;5092509;28;20465;-72
2022/03/22 04:04:42;;;;;;;60.87;28.27;;;;;;;-1.70;100.00;60632.13;5092195;28;20515;-71
2022/03/22 04:07:12;;;;;;;56.33;27.80;;;;;;;-1.02;100.00;60704.06;5092971;28;20445;-71
2022/03/22 04:09:40;;;;;;;67.40;29.40;;;;;;;-0.98;100.00;60708.31;5092707;28;20441;-71
2022/03/22 04:12:09;;;;;;;71.10;30.07;;;;;;;-0.86;100.00;60721.00;5092169;28;20481;-71
2022/03/22 04:14:36;;;;;;;73.80;29.80;;;;;;;-0.86;100.00;60721.00;5091640;28;20556;-71
2022/03/22 04:17:08;;;;;;;74.30;31.50;;;;;;;-1.01;100.00;60700.13;5092021;28;20433;-72
2022/03/22 04:19:36;;;;;;;74.53;32.03;;;;;;;-1.06;100.00;60701.78;5092529;28;20426;-72
2022/03/22 04:22:05;;;;;;;69.03;28.70;;;;;;;-1.09;100.00;60691.13;5092185;28;20441;-70
2022/03/22 04:24:33;;;;;;;65.87;29.43;;;;;;;-1.12;100.00;60690.97;5092253;28;20789;-71
2022/03/22 04:35:09;;;;;;;53.90;23.37;;;;;;;-0.93;100.00;60713.59;5092173;28;21000;-71
2022/03/22 04:37:37;;;;;;;50.63;22.03;;;;;;;-1.11;100.00;60697.06;5091924;28;20434;-72
2022/03/22 04:40:08;;;;;;;47.20;21.47;;;;;;;-1.10;100.00;60695.59;5091907;28;20949;-72
2022/03/22 04:42:36;;;;;;;45.67;20.43;;;;;;;-1.29;100.00;60678.00;5092027;28;20628;-72
2022/03/22 04:45:03;;;;;;;51.57;21.30;;;;;;;-0.98;100.00;60707.75;5091780;28;20936;-71
2022/03/22 04:47:30;;;;;;;49.20;21.73;;;;;;;-1.02;100.00;60699.06;5091909;28;20816;-72
2022/03/22 04:49:57;;;;;;;46.70;21.20;;;;;;;-0.96;100.00;60710.41;5092225;28;20440;-70
2022/03/22 04:58:09;;;;;;;52.17;22.43;;;;;;;-1.04;100.00;60701.41;5049404;28;20438;-72
2022/03/22 05:00:37;;;;;;;43.67;22.50;;;;;;;-1.47;100.00;60650.94;5049436;28;20435;-70
2022/03/22 05:03:05;;;;;;;51.83;20.80;;;;;;;-0.60;100.00;60749.97;5067686;28;20560;-72
2022/03/22 05:08:16;;;;;;;52.27;22.37;;;;;;;-0.50;100.00;60758.06;5091738;28;20440;-72
2022/03/22 05:10:45;;;;;;;42.40;17.80;;;;;;;-0.20;100.00;60789.84;5094703;28;20438;-71
2022/03/22 05:13:12;;;;;;;44.53;16.47;;;;;;;-0.25;100.00;60787.56;5095773;28;20485;-71
2022/03/22 05:15:40;;;;;;;46.07;20.30;;;;;;;-0.21;100.00;60793.75;5095374;28;20512;-71
2022/03/22 05:18:07;;;;;;;54.77;20.13;;;;;;;-0.20;100.00;60789.84;5095093;28;20503;-72
2022/03/22 05:20:33;;;;;;;40.40;17.47;;;;;;;-0.16;100.00;60797.09;5095340;28;20859;-71
2022/03/22 05:23:01;;;;;;;39.13;19.07;;;;;;;-0.19;100.00;60785.88;5095604;28;20441;-71
2022/03/22 05:25:31;;;;;;;37.83;17.63;;;;;;;0.15;100.00;60826.91;5095454;28;20434;-70
2022/03/22 05:28:00;;;;;;;50.00;20.23;;;;;;;0.27;100.00;60837.13;5095665;28;20512;-71
2022/03/22 05:30:27;;;;;;;46.53;19.43;;;;;;;0.37;100.00;60850.22;5095058;28;20437;-72
2022/03/22 05:32:54;;;;;;;43.77;19.63;;;;;;;0.69;100.00;60883.59;5094986;28;20564;-71
2022/03/22 05:35:23;;;;;;;39.97;19.40;;;;;;;0.61;100.00;60875.66;5095040;28;20457;-72
2022/03/22 05:37:50;;;;;;;45.60;19.50;;;;;;;0.35;100.00;60848.09;5094936;28;20441;-71
2022/03/22 05:40:16;;;;;;;43.33;19.77;;;;;;;0.10;100.00;60824.13;5095118;28;20438;-72
2022/03/22 05:42:43;;;;;;;42.70;19.83;;;;;;;0.53;100.00;60864.66;5094781;28;20952;-71
2022/03/22 05:45:13;;;;;;;47.33;20.90;;;;;;;0.73;100.00;60887.84;5095074;28;20495;-71
2022/03/22 05:47:40;;;;;;;50.73;22.37;;;;;;;0.85;100.00;60896.09;5094593;28;20545;-73
2022/03/22 05:50:08;;;;;;;50.37;20.17;;;;;;;0.82;100.00;60897.94;5095060;28;20870;-72
2022/03/22 05:52:35;;;;;;;46.57;20.67;;;;;;;0.74;100.00;60888.91;5094355;28;20481;-73
2022/03/22 05:55:02;;;;;;;46.97;21.13;;;;;;;1.01;100.00;60912.53;5094591;28;20449;-73
2022/03/22 05:57:29;;;;;;;53.67;21.63;;;;;;;1.04;100.00;60918.22;5094621;28;20446;-71
2022/03/22 05:59:56;;;;;;;49.57;20.33;;;;;;;1.24;100.00;60936.38;5094346;28;20459;-72
2022/03/22 06:02:24;;;;;;;59.87;25.77;;;;;;;1.05;100.00;60921.25;5094409;28;21000;-70
2022/03/22 06:04:51;;;;;;;53.37;23.70;;;;;;;1.09;100.00;60920.50;5094339;28;20526;-71
2022/03/22 06:07:20;;;;;;;57.20;22.67;;;;;;;1.08;100.00;60922.47;5094366;28;20433;-71
2022/03/22 06:09:48;;;;;;;42.90;22.17;;;;;;;1.27;100.00;60944.59;5094298;28;20859;-71
2022/03/22 06:12:15;;;;;;;45.47;22.53;;;;;;;1.39;100.00;60952.31;5094169;28;20481;-71
2022/03/22 06:14:42;;;;;;;58.33;23.70;;;;;;;1.56;100.00;60975.38;5095110;28;20438;-72
2022/03/22 06:17:09;;;;;;;61.57;22.87;;;;;;;1.92;100.00;61013.56;5094091;28;20503;-72
2022/03/22 06:19:38;;;;;;;49.57;21.20;;;;;;;2.07;100.00;61029.50;5094004;28;20944;-71
2022/03/22 06:22:05;;;;;;;43.50;21.83;;;;;;;2.41;100.00;61065.09;5093823;28;20438;-71
2022/03/22 06:24:32;;;;;;;48.50;22.17;;;;;;;2.86;100.00;61107.34;5093926;28;20918;-72
2022/03/22 06:26:59;;;;;;;58.60;24.73;;;;;;;3.12;100.00;61137.47;5093810;28;20481;-72
2022/03/22 06:29:26;;;;;;;73.60;29.40;;;;;;;3.50;100.00;61175.38;5093933;28;20442;-71
2022/03/22 06:31:53;;;;;;;94.63;40.27;;;;;;;4.08;100.00;61241.56;5093795;28;21011;-71
2022/03/22 06:34:19;;;;;;;90.83;38.80;;;;;;;4.57;100.00;61290.69;5093817;28;20441;-73
2022/03/22 06:36:48;;;;;;;75.10;29.57;;;;;;;5.12;100.00;61346.72;5093807;28;20460;-72
2022/03/22 06:39:15;;;;;;;52.67;26.63;;;;;;;5.35;100.00;61376.28;5093940;28;20480;-71
2022/03/22 06:41:41;;;;;;;61.80;25.57;;;;;;;5.76;100.00;61419.97;5093484;28;20821;-71
2022/03/22 06:44:10;;;;;;;61.13;24.70;;;;;;;6.02;100.00;61442.09;5093696;28;20523;-72
2022/03/22 06:46:37;;;;;;;63.80;25.00;;;;;;;6.08;100.00;61453.56;5093378;28;20542;-71
2022/03/22 06:49:05;;;;;;;56.20;23.47;;;;;;;5.98;100.00;61443.44;5093649;28;20445;-71
2022/03/22 06:51:32;;;;;;;52.30;22.20;;;;;;;6.14;100.00;61459.44;5093406;28;20449;-71
2022/03/22 06:54:01;;;;;;;43.30;23.50;;;;;;;6.31;100.00;61477.56;5093643;28;20442;-72
2022/03/22 06:56:28;;;;;;;59.67;22.43;;;;;;;6.33;100.00;61477.69;5093540;28;20442;-71
2022/03/22 06:58:54;;;;;;;53.90;22.97;;;;;;;6.43;98.93;61490.38;5093674;28;20503;-72
2022/03/22 07:01:22;;;;;;;45.10;22.17;;;;;;;6.49;98.99;61494.22;5093269;28;20858;-72
2022/03/22 07:03:49;;;;;;;51.43;22.40;;;;;;;6.53;99.63;61501.03;5093120;28;20477;-72
2022/03/22 07:06:16;;;;;;;56.87;25.33;;;;;;;6.62;97.75;61510.66;5093332;28;20495;-71
2022/03/22 07:08:45;;;;;;;43.83;22.27;;;;;;;6.49;98.06;61494.22;5093222;28;20442;-71
2022/03/22 07:13:59;;;;;;;46.40;23.70;;;;;;;6.90;98.21;61540.53;5093582;28;20488;-71
2022/03/22 07:16:27;;;;;;;54.20;24.33;;;;;;;7.01;98.55;61552.25;5093254;28;20453;-71
2022/03/22 07:18:54;;;;;;;51.37;24.63;;;;;;;7.25;94.92;61577.88;5093556;28;20445;-71
2022/03/22 07:21:22;;;;;;;61.17;26.30;;;;;;;7.31;89.94;61584.28;5093040;28;20471;-71
2022/03/22 07:23:49;;;;;;;56.83;25.60;;;;;;;7.55;84.60;61609.38;5093021;28;20982;-73
2022/03/22 07:26:17;;;;;;;51.97;25.10;;;;;;;7.72;79.91;61627.00;5092626;28;20441;-72
2022/03/22 07:28:44;;;;;;;61.50;28.07;;;;;;;7.89;77.07;61642.63;5092859;28;20952;-74
2022/03/22 07:31:12;;;;;;;51.37;24.83;;;;;;;8.09;72.15;61664.00;5092695;28;20448;-73
2022/03/22 07:33:39;;;;;;;43.83;23.67;;;;;;;8.38;69.31;61697.53;5091912;28;20481;-73
2022/03/22 07:36:06;;;;;;;64.70;24.77;;;;;;;8.49;68.46;61709.31;5092574;28;20502;-72
2022/03/22 07:38:33;;;;;;;49.10;23.37;;;;;;;8.66;66.45;61726.94;5092717;28;20873;-71
2022/03/22 07:41:00;;;;;;;36.90;20.87;;;;;;;8.63;62.43;61719.19;5092687;28;20507;-71
2022/03/22 07:43:30;;;;;;;36.20;20.27;;;;;;;8.81;60.78;61740.97;5092608;28;20445;-71
2022/03/22 07:45:56;;;;;;;26.50;14.73;;;;;;;8.92;58.93;61752.75;5092326;28;20450;-72
2022/03/22 07:48:23;;;;;;;28.43;12.83;;;;;;;8.89;56.46;61747.00;5095114;28;20806;-72
2022/03/22 07:53:34;;;;;;;24.37;11.03;;;;;;;9.16;55.58;61780.94;5092236;28;20472;-70
2022/03/22 07:56:01;;;;;;;15.70;9.47;;;;;;;9.16;53.35;61775.88;5096774;28;20446;-71
2022/03/22 07:58:29;;;;;;;20.80;9.33;;;;;;;9.12;51.89;61776.66;5092766;28;20494;-71
2022/03/22 08:00:57;;;;;;;21.70;11.70;;;;;;;8.74;50.76;61736.03;5092405;28;20495;-71
2022/03/22 08:03:23;;;;;;;22.10;11.83;;;;;;;8.68;52.64;61729.63;5092157;28;20592;-72
2022/03/22 08:05:51;;;;;;;23.57;11.77;;;;;;;8.50;56.18;61705.28;5092057;28;20469;-71
2022/03/22 08:08:18;;;;;;;21.33;10.33;;;;;;;8.82;57.29;61744.59;5092285;28;20862;-71
2022/03/22 08:10:45;;;;;;;25.70;11.43;;;;;;;8.37;58.40;61691.41;5092223;28;20438;-71
2022/03/22 08:13:13;;;;;;;23.33;11.67;;;;;;;8.60;59.57;61715.97;5091870;28;20489;-72
2022/03/22 08:15:41;;;;;;;19.23;10.80;;;;;;;8.55;59.53;61715.72;5092408;28;20227;-72
2022/03/22 08:18:10;;;;;;;18.57;10.23;;;;;;;8.96;59.34;61753.94;5092467;28;20452;-72
2022/03/22 08:20:39;;;;;;;21.67;11.10;;;;;;;8.50;58.93;61715.44;5092004;28;20438;-72
2022/03/22 08:23:09;;;;;;;18.67;9.87;;;;;;;9.07;60.93;61771.31;5092344;28;20448;-73
2022/03/22 08:25:38;;;;;;;20.37;9.63;;;;;;;8.97;65.35;61763.19;5092188;28;20433;-72
2022/03/22 08:28:07;;;;;;;15.00;8.37;;;;;;;9.03;68.40;61766.50;5091761;28;20231;-72
2022/03/22 08:30:35;;;;;;;21.40;10.40;;;;;;;9.18;69.02;61783.09;5094019;28;20974;-72
2022/03/22 08:33:07;;;;;;;18.17;9.33;;;;;;;9.04;72.60;61765.56;5092459;28;20256;-72
2022/03/22 08:35:35;;;;;;;23.57;8.70;;;;;;;9.04;74.52;61763.03;5091886;28;20440;-72
2022/03/22 08:38:02;;;;;;;19.87;8.77;;;;;;;9.04;74.25;61763.03;5091659;28;20506;-71
2022/03/22 08:40:29;;;;;;;15.90;8.83;;;;;;;8.78;76.01;61735.22;5091577;28;20607;-72
2022/03/22 08:42:58;;;;;;;20.07;8.57;;;;;;;8.73;76.01;61734.97;5091866;28;20450;-72
2022/03/22 08:45:27;;;;;;;20.90;9.23;;;;;;;8.80;76.37;61739.38;5095813;28;20445;-71
2022/03/22 08:47:55;;;;;;;14.93;8.57;;;;;;;8.73;75.57;61732.44;5096255;28;20451;-72
2022/03/22 08:50:25;;;;;;;15.00;8.57;;;;;;;8.96;75.75;61757.00;5096453;28;20434;-70
2022/03/22 08:52:53;;;;;;;17.53;9.37;;;;;;;8.71;75.84;61727.75;5095941;28;20561;-72
2022/03/22 08:55:22;;;;;;;23.03;10.33;;;;;;;8.79;76.54;61740.84;5095793;28;20932;-73
2022/03/22 08:57:49;;;;;;;18.47;8.67;;;;;;;8.88;78.21;61748.47;5095883;28;20442;-71
2022/03/22 09:00:17;;;;;;;21.37;8.90;;;;;;;8.94;80.17;61757.41;5095271;28;20518;-71
2022/03/22 09:02:46;;;;;;;19.50;9.20;;;;;;;9.31;81.15;61796.47;5095614;28;20453;-71
2022/03/22 09:08:01;;;;;;;17.50;8.47;;;;;;;9.65;82.96;61832.31;5095633;28;20207;-72
2022/03/22 09:10:29;;;;;;;26.30;9.73;;;;;;;9.73;84.11;61840.88;5095990;28;20546;-72
2022/03/22 09:12:58;;;;;;;24.80;11.40;;;;;;;9.56;81.25;61818.13;5095123;28;20223;-73
2022/03/22 09:15:26;;;;;;;19.03;8.80;;;;;;;9.15;83.70;61779.34;5095856;28;20204;-72
2022/03/22 09:17:54;;;;;;;19.77;8.40;;;;;;;8.78;86.50;61739.75;5094283;28;20214;-71
2022/03/22 09:20:22;;;;;;;17.57;8.57;;;;;;;9.00;87.49;61760.75;5095423;28;20510;-72
2022/03/22 09:22:51;;;;;;;21.17;9.33;;;;;;;9.16;88.04;61780.41;5095227;28;20445;-73
2022/03/22 09:25:20;;;;;;;15.43;8.87;;;;;;;9.28;88.59;61793.25;5095293;28;20954;-72
2022/03/22 09:27:48;;;;;;;19.57;8.33;;;;;;;9.23;89.22;61791.00;5095549;28;20318;-71
2022/03/22 09:30:15;;;;;;;17.43;7.80;;;;;;;9.22;89.24;61786.81;5095032;28;20434;-71
2022/03/22 09:32:43;;;;;;;18.63;8.10;;;;;;;8.92;91.23;61742.56;5094915;28;20999;-72
2022/03/22 09:35:12;;;;;;;18.03;8.03;;;;;;;9.13;91.75;61772.66;5095036;28;21016;-73
2022/03/22 09:37:39;;;;;;;18.73;8.30;;;;;;;9.21;90.67;61783.75;5094961;28;20522;-71
2022/03/22 09:40:07;;;;;;;18.83;7.63;;;;;;;9.16;91.05;61780.94;5094870;28;20203;-72
2022/03/22 09:42:37;;;;;;;12.37;7.20;;;;;;;9.10;92.01;61774.53;5094687;28;20445;-72
2022/03/22 09:45:08;;;;;;;20.93;8.67;;;;;;;9.12;90.20;61771.03;5094583;28;20437;-72
2022/03/22 09:47:35;;;;;;;14.83;8.33;;;;;;;9.23;91.21;61783.38;5094557;28;20442;-71
2022/03/22 09:50:03;;;;;;;16.53;7.33;;;;;;;9.29;92.24;61794.31;5095050;28;20477;-72
2022/03/22 09:52:30;;;;;;;17.27;9.17;;;;;;;9.02;91.96;61771.06;5094815;28;20195;-72
2022/03/22 09:54:57;;;;;;;16.43;7.40;;;;;;;8.76;95.35;61738.16;5093569;28;20202;-72
2022/03/22 09:57:24;;;;;;;12.03;6.57;;;;;;;8.77;98.74;61741.25;5095133;28;20442;-72
2022/03/22 09:59:52;;;;;;;14.80;7.23;;;;;;;8.92;98.51;61752.19;5094604;28;20495;-72
2022/03/22 10:02:27;;;;;;;14.70;7.20;;;;;;;8.95;100.00;61757.97;5094553;28;20438;-72
2022/03/22 10:04:54;;;;;;;11.00;7.00;;;;;;;9.27;99.29;61789.66;5094391;28;20544;-73
2022/03/22 10:07:23;;;;;;;14.33;7.87;;;;;;;9.41;97.12;61804.63;5094389;28;20269;-71
2022/03/22 10:09:52;;;;;;;14.80;7.07;;;;;;;9.17;98.96;61782.03;5094164;28;20430;-73
2022/03/22 10:12:27;;;;;;;11.40;6.47;;;;;;;9.19;98.92;61791.78;5094438;28;20199;-72
2022/03/22 10:14:55;;;;;;;11.73;7.13;;;;;;;9.09;100.00;61773.47;5097619;28;20429;-72
2022/03/22 10:17:22;;;;;;;15.37;6.73;;;;;;;9.14;100.00;61778.28;5095226;28;20290;-71
2022/03/22 10:19:52;;;;;;;16.60;7.80;;;;;;;9.37;100.00;61800.34;5094309;28;20503;-72
2022/03/22 10:22:25;;;;;;;15.67;7.00;;;;;;;9.68;99.05;61835.53;5094488;28;20429;-71
2022/03/22 10:24:55;;;;;;;14.23;7.00;;;;;;;9.75;97.10;61843.56;5094065;28;20261;-72
2022/03/22 10:27:24;;;;;;;12.37;6.10;;;;;;;9.73;95.43;61840.88;5094214;28;20746;-72
2022/03/22 10:29:52;;;;;;;13.00;6.80;;;;;;;9.97;94.88;61861.47;5094149;28;20252;-72
2022/03/22 10:32:29;;;;;;;12.53;7.03;;;;;;;9.99;92.35;61868.69;5093945;28;20277;-72
2022/03/22 10:34:57;;;;;;;15.50;7.80;;;;;;;10.19;89.62;61887.59;5094328;28;20231;-71
2022/03/22 10:37:27;;;;;;;12.70;6.57;;;;;;;10.41;84.87;61913.69;5094244;28;20532;-72
2022/03/22 10:39:55;;;;;;;13.50;7.53;;;;;;;10.82;84.07;61955.09;5093676;28;20203;-72
2022/03/22 10:42:24;;;;;;;18.50;9.60;;;;;;;11.29;79.31;62001.84;5093703;28;20645;-72
2022/03/22 10:44:51;;;;;;;12.40;6.23;;;;;;;11.50;75.26;62029.97;5093533;28;20357;-73
2022/03/22 10:47:28;;;;;;;15.60;7.47;;;;;;;11.88;75.63;62067.66;5093555;28;20248;-74
2022/03/22 10:50:02;;;;;;;16.10;7.10;;;;;;;12.49;70.97;62130.56;5093483;28;20541;-71
2022/03/22 10:52:31;;;;;;;14.23;7.37;;;;;;;12.05;67.88;62085.91;5093232;28;20206;-73
2022/03/22 10:54:59;;;;;;;16.70;7.57;;;;;;;12.74;68.14;62159.41;5093250;28;20272;-73
2022/03/22 10:57:32;;;;;;;17.87;7.20;;;;;;;12.29;64.67;62116.78;5093265;28;20204;-72
2022/03/22 11:00:02;;;;;;;13.13;7.13;;;;;;;12.93;61.99;62174.16;5093200;28;20200;-73
2022/03/22 11:02:34;;;;;;;14.93;7.50;;;;;;;12.87;64.54;62175.38;5093339;28;20202;-70
2022/03/22 11:05:04;;;;;;;12.80;7.23;;;;;;;13.02;64.18;62192.03;5093442;28;20666;-74
2022/03/22 11:07:34;;;;;;;14.33;7.43;;;;;;;12.86;63.70;62171.78;5091924;28;20677;-72
2022/03/22 11:10:02;;;;;;;13.83;7.00;;;;;;;12.23;62.33;62097.56;5092866;28;20198;-72
2022/03/22 11:12:30;;;;;;;20.33;9.93;;;;;;;12.90;63.90;62176.06;5092921;28;20195;-73
2022/03/22 11:14:58;;;;;;;15.60;7.23;;;;;;;12.50;61.51;62134.19;5093499;28;20230;-73
2022/03/22 11:17:28;;;;;;;10.97;6.87;;;;;;;12.10;62.88;62088.72;5093095;28;20257;-72
2022/03/22 11:19:57;;;;;;;17.73;7.37;;;;;;;11.79;63.74;62058.03;5093372;28;20286;-73
2022/03/22 11:22:24;;;;;;;38.90;10.40;;;;;;;11.50;65.56;62024.34;5092866;28;20198;-73
2022/03/22 11:24:52;;;;;;;22.13;8.57;;;;;;;11.31;65.83;62006.53;5092900;28;20231;-71
2022/03/22 11:27:30;;;;;;;21.00;7.67;;;;;;;10.91;66.44;61962.16;5092554;28;20240;-73
2022/03/22 11:29:57;;;;;;;13.93;6.60;;;;;;;11.77;62.19;62058.44;5092680;28;20237;-73
2022/03/22 11:35:15;;;;;;;16.03;6.80;;;;;;;12.39;60.33;62124.41;5092720;28;20243;-73
2022/03/22 11:37:42;;;;;;;17.13;7.27;;;;;;;12.95;58.61;62179.41;5093109;28;20195;-72
2022/03/22 11:43:02;;;;;;;22.40;7.77;;;;;;;13.28;55.63;62216.91;5093593;28;20677;-71
2022/03/22 11:45:29;;;;;;;14.43;7.80;;;;;;;13.70;54.11;62259.47;5094058;28;20222;-72
2022/03/22 11:47:56;;;;;;;14.60;7.10;;;;;;;13.90;53.49;62280.94;5093957;28;20195;-72
2022/03/22 11:50:25;;;;;;;29.57;7.63;;;;;;;13.43;52.16;62235.56;5092782;28;20234;-73
2022/03/22 11:53:01;;;;;;;28.67;8.47;;;;;;;13.56;52.03;62241.84;5092522;28;20747;-73
2022/03/22 11:55:28;;;;;;;11.60;6.50;;;;;;;13.96;52.00;62286.84;5092502;28;20253;-73
2022/03/22 11:57:59;;;;;;;15.13;6.77;;;;;;;13.94;49.46;62287.25;5093289;28;20211;-72
2022/03/22 12:00:43;;;;;;;19.27;8.57;;;;;;;13.64;48.90;62253.00;5093538;28;20283;-74
2022/03/22 12:03:12;;;;;;;17.67;6.70;;;;;;;14.12;50.74;62306.63;5092290;28;20220;-73